createdAt,value
2023-03-16T00:02:35.345Z,82.3
2023-03-16T00:14:35.507Z,82.4
2023-03-16T00:26:35.677Z,82.4
2023-03-16T00:38:35.461Z,84.0
2023-03-16T00:50:35.367Z,82.0
2023-03-16T01:02:35.441Z,83.9
2023-03-16T01:14:35.361Z,83.1
2023-03-16T01:26:35.324Z,82.3
2023-03-16T01:38:35.437Z,76.8
2023-03-16T01:50:35.787Z,75.3
2023-03-16T02:02:35.784Z,74.4
2023-03-16T02:14:35.461Z,74.0
2023-03-16T02:26:35.890Z,74.6
2023-03-16T02:38:35.344Z,75.2
2023-03-16T02:50:35.486Z,75.6
2023-03-16T03:02:35.732Z,78.2
2023-03-16T03:14:35.827Z,78.7
2023-03-16T03:26:35.813Z,83.4
2023-03-16T03:38:35.827Z,84.8
2023-03-16T03:50:35.346Z,85.4
2023-03-16T04:02:35.877Z,86.9
2023-03-16T04:14:35.788Z,87.1
2023-03-16T04:26:35.675Z,87.2
2023-03-16T04:38:35.753Z,87.8
2023-03-16T04:50:35.762Z,88.7
2023-03-16T05:02:35.641Z,84.2
2023-03-16T05:14:35.905Z,83.8
2023-03-16T05:26:35.725Z,82.9
2023-03-16T05:38:35.637Z,83.2
2023-03-16T05:50:35.630Z,82.7
2023-03-16T06:02:35.724Z,83.2
2023-03-16T06:14:35.780Z,82.8
2023-03-16T06:26:35.652Z,82.8
2023-03-16T06:38:35.687Z,82.6
2023-03-16T06:50:35.613Z,81.6
2023-03-16T07:02:35.613Z,80.9
2023-03-16T07:14:35.700Z,80.0
2023-03-16T07:26:35.595Z,80.3
2023-03-16T07:38:35.678Z,76.2
2023-03-16T07:50:35.584Z,76.5
2023-03-16T08:02:35.367Z,72.9
2023-03-16T08:14:35.563Z,73.6
2023-03-16T08:26:36.021Z,72.2
2023-03-16T08:38:35.770Z,72.9
2023-03-16T08:50:35.524Z,71.6
2023-03-16T09:02:35.328Z,68.8
2023-03-16T09:14:35.544Z,68.9
2023-03-16T09:26:35.650Z,66.7
2023-03-16T09:38:35.550Z,66.1
2023-03-16T09:50:47.629Z,65.4
2023-03-16T10:02:35.335Z,63.4
2023-03-16T10:14:35.497Z,62.9
2023-03-16T10:26:35.555Z,60.9
2023-03-16T10:38:35.544Z,61.0
2023-03-16T10:50:35.550Z,62.1
2023-03-16T11:02:35.453Z,60.4
2023-03-16T11:14:35.527Z,59.8
2023-03-16T11:26:35.431Z,60.9
2023-03-16T11:38:35.511Z,60.0
2023-03-16T11:50:35.551Z,56.7
2023-03-16T12:02:35.462Z,55.9
2023-03-16T12:14:35.486Z,54.0
2023-03-16T12:26:35.428Z,56.1
2023-03-16T12:38:35.560Z,49.8
2023-03-16T12:50:35.498Z,52.4
2023-03-16T13:02:35.430Z,53.8
2023-03-16T13:14:35.328Z,51.4
2023-03-16T13:26:35.438Z,54.2
2023-03-16T13:38:35.373Z,54.9
2023-03-16T13:50:35.383Z,54.0
2023-03-16T14:02:35.443Z,53.8
2023-03-16T14:14:35.328Z,54.4
2023-03-16T14:26:35.750Z,54.2
2023-03-16T14:38:35.508Z,52.6
2023-03-16T14:50:35.383Z,53.5
2023-03-16T15:02:35.375Z,54.2
2023-03-16T15:14:35.396Z,56.2
2023-03-16T15:26:35.712Z,53.5
2023-03-16T15:38:35.345Z,54.7
2023-03-16T15:50:35.347Z,54.8
2023-03-16T16:02:35.332Z,56.2
2023-03-16T16:14:35.630Z,56.3
2023-03-16T16:26:50.099Z,57.4
2023-03-16T16:38:35.337Z,57.3
2023-03-16T16:50:35.351Z,58.1
2023-03-16T17:02:37.927Z,58.0
2023-03-16T17:14:35.346Z,58.4
2023-03-16T17:26:35.745Z,60.7
2023-03-16T17:38:35.332Z,60.9
2023-03-16T17:50:35.364Z,61.0
2023-03-16T18:02:35.482Z,61.4
2023-03-16T18:14:35.490Z,61.9
2023-03-16T18:26:35.940Z,62.6
2023-03-16T18:38:35.344Z,62.7
2023-03-16T18:50:35.351Z,62.7
2023-03-16T19:02:35.348Z,62.8
2023-03-16T19:14:35.340Z,62.5
2023-03-16T19:26:35.525Z,63.3
2023-03-16T19:38:35.347Z,63.7
2023-03-16T19:50:35.345Z,63.2
2023-03-16T20:02:35.331Z,63.1
2023-03-16T20:14:35.340Z,60.8
2023-03-16T20:26:35.474Z,61.8
2023-03-16T20:38:35.344Z,61.3
2023-03-16T20:50:35.349Z,62.7
2023-03-16T21:02:35.335Z,62.1
2023-03-16T21:14:35.341Z,63.6
2023-03-16T21:26:35.351Z,65.4
2023-03-16T21:38:35.336Z,65.8
2023-03-16T21:50:35.345Z,66.1
2023-03-16T22:02:35.413Z,66.8
2023-03-16T22:14:35.326Z,66.9
2023-03-16T22:26:35.355Z,66.6
2023-03-16T22:38:35.330Z,67.4
2023-03-16T22:50:35.349Z,67.3
2023-03-16T23:02:35.345Z,67.9
2023-03-16T23:14:35.333Z,68.3
2023-03-16T23:26:35.337Z,67.1
2023-03-16T23:38:35.342Z,66.5
2023-03-16T23:50:35.348Z,65.9
